createdAt,value
2018-10-11T00:01:42.900Z,13.13
2018-10-11T00:04:11.293Z,13.10
2018-10-11T00:06:39.738Z,13.02
2018-10-11T00:09:09.264Z,12.93
2018-10-11T00:11:37.714Z,12.83
2018-10-11T00:14:06.279Z,12.77
2018-10-11T00:16:34.668Z,12.75
2018-10-11T00:19:03.067Z,12.75
2018-10-11T00:21:31.502Z,12.75
2018-10-11T00:23:59.928Z,12.70
2018-10-11T00:26:28.349Z,12.72
2018-10-11T00:28:56.735Z,12.71
2018-10-11T00:31:25.122Z,12.65
2018-10-11T00:33:53.627Z,12.66
2018-10-11T00:36:22.028Z,12.74
2018-10-11T00:38:50.446Z,12.87
2018-10-11T00:41:18.851Z,12.77
2018-10-11T00:43:47.278Z,12.61
2018-10-11T00:46:15.724Z,12.51
2018-10-11T00:48:44.308Z,12.57
2018-10-11T00:51:12.746Z,12.75
2018-10-11T00:53:41.219Z,12.97
2018-10-11T00:56:09.649Z,13.12
2018-10-11T00:58:38.167Z,13.14
2018-10-11T01:01:06.581Z,13.16
2018-10-11T01:03:35.011Z,13.17
2018-10-11T01:06:03.440Z,13.16
2018-10-11T01:08:31.862Z,13.09
2018-10-11T01:11:00.228Z,13.13
2018-10-11T01:13:28.629Z,13.20
2018-10-11T01:15:57.022Z,13.21
2018-10-11T01:18:25.784Z,13.20
2018-10-11T01:20:54.506Z,13.20
2018-10-11T01:23:23.412Z,13.26
2018-10-11T01:25:51.865Z,13.27
2018-10-11T01:28:20.297Z,13.24
2018-10-11T01:30:53.941Z,13.30
2018-10-11T01:33:22.441Z,13.10
2018-10-11T01:35:50.945Z,12.89
2018-10-11T01:38:19.474Z,12.79
2018-10-11T01:40:48.018Z,12.76
2018-10-11T01:43:16.465Z,12.69
2018-10-11T01:45:45.101Z,12.70
2018-10-11T01:48:13.465Z,12.64
2018-10-11T01:50:41.879Z,12.64
2018-10-11T01:53:10.288Z,12.70
2018-10-11T01:55:38.713Z,12.73
2018-10-11T01:58:07.145Z,12.70
2018-10-11T02:00:35.616Z,12.72
2018-10-11T02:03:04.386Z,12.76
2018-10-11T02:05:32.849Z,12.71
2018-10-11T02:08:01.329Z,12.56
2018-10-11T02:10:29.920Z,12.56
2018-10-11T02:12:59.069Z,12.53
2018-10-11T02:15:28.459Z,12.52
2018-10-11T02:17:57.598Z,12.52
2018-10-11T02:20:27.179Z,12.62
2018-10-11T02:22:55.636Z,12.65
2018-10-11T02:25:24.169Z,12.63
2018-10-11T02:27:52.622Z,12.51
2018-10-11T02:30:21.024Z,12.40
2018-10-11T02:32:49.415Z,12.28
2018-10-11T02:35:18.029Z,12.25
2018-10-11T02:37:46.446Z,12.40
2018-10-11T02:40:14.850Z,12.41
2018-10-11T02:42:43.509Z,12.38
2018-10-11T02:45:11.919Z,12.33
2018-10-11T02:47:40.358Z,12.34
2018-10-11T02:50:08.985Z,12.33
2018-10-11T02:52:37.379Z,12.38
2018-10-11T02:55:06.014Z,12.35
2018-10-11T02:57:45.588Z,12.36
2018-10-11T03:00:14.048Z,12.33
2018-10-11T03:02:44.168Z,12.23
2018-10-11T03:05:14.538Z,12.28
2018-10-11T03:07:43.829Z,12.34
2018-10-11T03:10:12.309Z,12.46
2018-10-11T03:12:40.850Z,12.51
2018-10-11T03:15:09.544Z,12.53
2018-10-11T03:17:37.956Z,12.64
2018-10-11T03:20:06.611Z,12.65
2018-10-11T03:22:35.043Z,12.60
2018-10-11T03:25:03.513Z,12.55
2018-10-11T03:27:31.886Z,12.50
2018-10-11T03:30:00.293Z,12.47
2018-10-11T03:32:28.659Z,12.40
2018-10-11T03:34:57.717Z,12.27
2018-10-11T03:37:26.109Z,12.28
2018-10-11T03:39:54.509Z,12.35
2018-10-11T03:42:22.867Z,12.35
2018-10-11T03:44:51.249Z,12.38
2018-10-11T03:47:19.621Z,12.34
2018-10-11T03:49:48.057Z,12.26
2018-10-11T03:52:16.467Z,12.04
2018-10-11T03:54:44.874Z,11.98
2018-10-11T03:57:13.237Z,11.83
2018-10-11T03:59:41.713Z,11.74
2018-10-11T04:02:10.151Z,11.80
2018-10-11T04:04:38.587Z,12.01
2018-10-11T04:07:06.996Z,12.11
2018-10-11T04:09:35.394Z,12.12
2018-10-11T04:12:03.829Z,11.91
2018-10-11T04:14:32.205Z,11.87
2018-10-11T04:17:00.581Z,11.83
2018-10-11T04:19:28.979Z,11.79
2018-10-11T04:21:57.386Z,11.70
2018-10-11T04:24:25.759Z,11.80
2018-10-11T04:26:54.217Z,11.91
2018-10-11T04:29:22.593Z,11.97
2018-10-11T04:31:51.016Z,11.91
2018-10-11T04:34:19.428Z,11.97
2018-10-11T04:36:47.821Z,11.98
2018-10-11T04:39:16.220Z,12.08
2018-10-11T04:41:44.633Z,12.13
2018-10-11T04:44:13.016Z,12.10
2018-10-11T04:46:41.636Z,11.97
2018-10-11T04:51:51.253Z,11.87
2018-10-11T04:54:19.658Z,11.88
2018-10-11T04:56:48.109Z,11.99
2018-10-11T04:59:16.590Z,11.94
2018-10-11T05:01:45.055Z,12.03
2018-10-11T05:04:13.449Z,12.08
2018-10-11T05:06:41.893Z,12.07
2018-10-11T05:09:10.422Z,11.92
2018-10-11T05:11:39.637Z,11.85
2018-10-11T05:14:08.530Z,11.80
2018-10-11T05:16:36.990Z,11.79
2018-10-11T05:19:05.537Z,11.77
2018-10-11T05:21:34.035Z,11.75
2018-10-11T05:24:02.449Z,11.77
2018-10-11T05:26:30.856Z,11.76
2018-10-11T05:28:59.288Z,11.75
2018-10-11T05:31:28.688Z,11.84
2018-10-11T05:33:57.139Z,11.89
2018-10-11T05:36:25.558Z,11.96
2018-10-11T05:38:53.933Z,12.03
2018-10-11T05:41:22.383Z,12.09
2018-10-11T05:43:50.800Z,12.13
2018-10-11T05:46:27.570Z,12.07
2018-10-11T05:48:56.922Z,12.02
2018-10-11T05:51:25.461Z,11.96
2018-10-11T05:53:55.752Z,11.88
2018-10-11T05:56:25.286Z,11.82
2018-10-11T05:58:53.799Z,11.85
2018-10-11T06:01:22.454Z,11.98
2018-10-11T06:03:50.901Z,12.16
2018-10-11T06:06:19.381Z,12.26
2018-10-11T06:08:47.825Z,12.24
2018-10-11T06:11:16.346Z,12.29
2018-10-11T06:13:45.712Z,12.28
2018-10-11T06:16:14.306Z,12.20
2018-10-11T06:18:42.957Z,12.22
2018-10-11T06:21:11.561Z,12.24
2018-10-11T06:23:40.098Z,12.27
2018-10-11T06:26:08.527Z,12.34
2018-10-11T06:28:37.010Z,12.42
2018-10-11T06:31:05.510Z,12.42
2018-10-11T06:33:33.933Z,12.48
2018-10-11T06:36:02.593Z,12.52
2018-10-11T06:38:31.141Z,12.45
2018-10-11T06:40:59.705Z,12.46
2018-10-11T06:43:28.245Z,12.34
2018-10-11T06:45:56.726Z,12.28
2018-10-11T06:48:25.184Z,12.25
2018-10-11T06:50:53.644Z,12.30
2018-10-11T06:53:22.087Z,12.43
2018-10-11T06:55:50.499Z,12.55
2018-10-11T06:58:18.978Z,12.64
2018-10-11T07:00:47.405Z,12.78
2018-10-11T07:03:15.890Z,12.95
2018-10-11T07:05:44.257Z,13.07
2018-10-11T07:08:12.670Z,13.17
2018-10-11T07:10:41.070Z,13.34
2018-10-11T07:13:09.855Z,13.45
2018-10-11T07:15:38.241Z,13.57
2018-10-11T07:18:06.678Z,13.71
2018-10-11T07:20:35.117Z,13.86
2018-10-11T07:23:03.523Z,14.03
2018-10-11T07:25:31.941Z,14.18
2018-10-11T07:28:00.437Z,14.36
2018-10-11T07:30:28.838Z,14.53
2018-10-11T07:32:57.281Z,14.75
2018-10-11T07:35:25.799Z,14.95
2018-10-11T07:37:54.125Z,15.17
2018-10-11T07:40:22.530Z,15.33
2018-10-11T07:42:50.927Z,15.48
2018-10-11T07:45:19.329Z,15.66
2018-10-11T07:47:47.766Z,15.78
2018-10-11T07:50:16.168Z,15.93
2018-10-11T07:52:44.584Z,16.10
2018-10-11T07:55:13.005Z,16.21
2018-10-11T07:57:41.393Z,16.42
2018-10-11T08:00:12.015Z,16.67
2018-10-11T08:02:42.689Z,16.87
2018-10-11T08:05:11.271Z,17.09
2018-10-11T08:07:39.843Z,17.33
2018-10-11T08:10:08.621Z,17.49
2018-10-11T08:12:37.021Z,17.64
2018-10-11T08:15:05.713Z,17.67
2018-10-11T08:17:34.496Z,17.62
2018-10-11T08:20:02.670Z,17.64
2018-10-11T08:22:30.988Z,17.68
2018-10-11T08:24:59.615Z,17.69
2018-10-11T08:27:27.977Z,17.77
2018-10-11T08:29:56.397Z,17.84
2018-10-11T08:32:24.951Z,17.90
2018-10-11T08:34:53.273Z,17.99
2018-10-11T08:37:21.944Z,18.08
2018-10-11T08:39:50.351Z,18.11
2018-10-11T08:42:18.773Z,18.15
2018-10-11T08:44:47.179Z,18.19
2018-10-11T08:47:15.574Z,18.21
2018-10-11T08:49:43.978Z,18.28
2018-10-11T08:52:12.389Z,18.23
2018-10-11T08:54:47.690Z,18.28
2018-10-11T08:57:16.337Z,18.33
2018-10-11T08:59:45.145Z,18.35
2018-10-11T09:02:13.685Z,18.35
2018-10-11T09:04:42.098Z,18.36
2018-10-11T09:07:10.528Z,18.44
2018-10-11T09:09:39.013Z,18.56
2018-10-11T09:12:07.441Z,18.60
2018-10-11T09:14:36.030Z,18.70
2018-10-11T09:17:04.521Z,18.76
2018-10-11T09:19:32.941Z,18.77
2018-10-11T09:22:01.875Z,18.83
2018-10-11T09:24:30.394Z,18.96
2018-10-11T09:26:59.061Z,19.12
2018-10-11T09:29:27.453Z,19.28
2018-10-11T09:31:55.830Z,19.48
2018-10-11T09:34:24.232Z,19.66
2018-10-11T09:36:52.615Z,19.67
2018-10-11T09:39:21.014Z,19.71
2018-10-11T09:41:49.413Z,19.76
2018-10-11T09:44:17.822Z,19.87
2018-10-11T09:46:46.225Z,19.94
2018-10-11T09:49:14.647Z,20.07
2018-10-11T09:51:43.170Z,20.20
2018-10-11T09:54:11.572Z,20.38
2018-10-11T09:57:14.940Z,20.55
2018-10-11T09:59:43.341Z,20.68
2018-10-11T10:02:12.617Z,20.73
2018-10-11T10:04:49.546Z,20.77
2018-10-11T10:07:17.961Z,20.88
2018-10-11T10:09:46.990Z,20.95
2018-10-11T10:12:15.954Z,20.96
2018-10-11T10:14:45.187Z,21.04
2018-10-11T10:17:13.598Z,21.08
2018-10-11T10:19:42.603Z,21.17
2018-10-11T10:22:10.996Z,21.35
2018-10-11T10:24:39.966Z,21.39
2018-10-11T10:27:08.528Z,21.60
2018-10-11T10:29:36.993Z,21.65
2018-10-11T10:32:05.791Z,21.68
2018-10-11T10:34:34.209Z,21.63
2018-10-11T10:37:02.624Z,21.52
2018-10-11T10:39:31.085Z,21.47
2018-10-11T10:41:59.477Z,21.42
2018-10-11T10:44:27.870Z,21.41
2018-10-11T10:46:56.318Z,21.42
2018-10-11T10:49:24.749Z,21.46
2018-10-11T10:51:53.121Z,21.61
2018-10-11T10:54:27.425Z,21.79
2018-10-11T10:56:56.209Z,21.96
2018-10-11T10:59:24.713Z,21.98
2018-10-11T11:01:53.381Z,22.07
2018-10-11T11:04:21.829Z,22.24
2018-10-11T11:06:50.302Z,22.35
2018-10-11T11:09:18.725Z,22.48
2018-10-11T11:11:47.102Z,22.75
2018-10-11T11:14:16.424Z,22.70
2018-10-11T11:16:45.435Z,22.74
2018-10-11T11:19:14.445Z,22.82
2018-10-11T11:21:42.921Z,22.79
2018-10-11T11:24:11.325Z,22.85
2018-10-11T11:26:39.773Z,22.77
2018-10-11T11:29:08.233Z,22.77
2018-10-11T11:31:36.634Z,22.76
2018-10-11T11:34:05.082Z,22.74
2018-10-11T11:36:33.495Z,22.75
2018-10-11T11:39:01.914Z,22.60
2018-10-11T11:41:30.391Z,22.70
2018-10-11T11:43:58.801Z,22.67
2018-10-11T11:46:27.215Z,22.61
2018-10-11T11:48:55.630Z,22.54
2018-10-11T11:51:24.015Z,22.37
2018-10-11T11:53:52.434Z,22.35
2018-10-11T11:56:20.818Z,22.27
2018-10-11T11:58:49.317Z,22.24
2018-10-11T12:01:17.783Z,22.19
2018-10-11T12:03:46.220Z,22.17
2018-10-11T12:06:14.622Z,22.04
2018-10-11T12:08:43.097Z,22.01
2018-10-11T12:11:11.503Z,21.93
2018-10-11T12:13:39.951Z,21.90
2018-10-11T12:16:08.358Z,21.85
2018-10-11T12:18:36.778Z,21.83
2018-10-11T12:21:05.195Z,21.74
2018-10-11T12:23:33.826Z,21.72
2018-10-11T12:26:02.245Z,21.69
2018-10-11T12:28:30.682Z,21.73
2018-10-11T12:30:59.086Z,21.74
2018-10-11T12:33:27.481Z,21.66
2018-10-11T12:35:55.905Z,21.68
2018-10-11T12:38:24.374Z,21.75
2018-10-11T12:40:52.816Z,21.76
2018-10-11T12:43:21.230Z,21.78
2018-10-11T12:45:49.660Z,21.83
2018-10-11T12:48:18.057Z,21.95
2018-10-11T12:50:46.493Z,22.02
2018-10-11T12:53:14.899Z,22.14
2018-10-11T12:55:43.381Z,22.16
2018-10-11T12:58:11.780Z,22.22
2018-10-11T13:00:40.234Z,22.22
2018-10-11T13:03:09.014Z,22.20
2018-10-11T13:05:37.460Z,22.23
2018-10-11T13:08:05.846Z,22.21
2018-10-11T13:10:34.271Z,22.19
2018-10-11T13:13:04.537Z,22.25
2018-10-11T13:15:31.220Z,22.26
2018-10-11T13:17:59.628Z,22.34
2018-10-11T13:20:28.185Z,22.43
2018-10-11T13:22:56.647Z,22.46
2018-10-11T13:25:25.306Z,22.50
2018-10-11T13:27:53.685Z,22.49
2018-10-11T13:30:22.472Z,22.48
2018-10-11T13:32:51.116Z,22.39
2018-10-11T13:35:19.566Z,22.40
2018-10-11T13:37:47.955Z,22.38
2018-10-11T13:40:16.627Z,22.46
2018-10-11T13:42:45.028Z,22.58
2018-10-11T13:45:13.466Z,22.66
2018-10-11T13:47:45.460Z,22.69
2018-10-11T13:50:11.241Z,22.75
2018-10-11T13:52:39.887Z,22.92
2018-10-11T13:55:13.054Z,23.12
2018-10-11T13:57:38.237Z,23.25
2018-10-11T14:00:08.179Z,23.41
2018-10-11T14:02:36.754Z,23.36
2018-10-11T14:05:05.497Z,23.30
2018-10-11T14:07:35.076Z,23.26
2018-10-11T14:10:03.650Z,23.16
2018-10-11T14:12:32.174Z,23.04
2018-10-11T14:15:00.687Z,22.92
2018-10-11T14:17:29.417Z,22.85
2018-10-11T14:19:57.858Z,22.67
2018-10-11T14:22:26.297Z,22.64
2018-10-11T14:24:55.209Z,22.53
2018-10-11T14:27:23.611Z,22.45
2018-10-11T14:29:52.129Z,22.36
2018-10-11T14:32:20.510Z,22.35
2018-10-11T14:34:48.956Z,22.24
2018-10-11T14:37:17.437Z,22.18
2018-10-11T14:39:45.792Z,22.13
2018-10-11T14:42:14.284Z,22.04
2018-10-11T14:44:42.728Z,22.06
2018-10-11T14:47:11.157Z,22.16
2018-10-11T14:49:39.623Z,22.35
2018-10-11T14:52:12.734Z,22.41
2018-10-11T14:54:41.537Z,22.37
2018-10-11T14:57:10.922Z,22.27
2018-10-11T14:59:40.192Z,22.27
2018-10-11T15:02:10.809Z,22.18
2018-10-11T15:04:39.488Z,22.11
2018-10-11T15:07:08.497Z,22.11
2018-10-11T15:09:37.203Z,22.05
2018-10-11T15:12:05.963Z,22.83
2018-10-11T15:14:34.561Z,23.15
2018-10-11T15:17:03.738Z,23.72
2018-10-11T15:19:32.602Z,25.17
2018-10-11T15:22:01.507Z,26.36
2018-10-11T15:24:30.243Z,26.51
2018-10-11T15:26:59.406Z,25.78
2018-10-11T15:29:28.298Z,25.34
2018-10-11T15:31:57.012Z,25.90
2018-10-11T15:34:25.738Z,26.76
2018-10-11T15:39:31.481Z,26.90
2018-10-11T15:42:00.334Z,27.15
2018-10-11T15:44:28.841Z,27.24
2018-10-11T15:46:57.370Z,27.37
2018-10-11T15:49:25.853Z,27.55
2018-10-11T15:51:54.774Z,27.40
2018-10-11T15:54:23.390Z,26.97
2018-10-11T15:56:51.808Z,26.36
2018-10-11T15:59:30.473Z,25.63
2018-10-11T16:01:58.948Z,25.08
2018-10-11T16:04:27.674Z,24.69
2018-10-11T16:06:56.137Z,24.10
2018-10-11T16:09:24.691Z,23.75
2018-10-11T16:11:53.334Z,23.37
2018-10-11T16:14:28.477Z,23.06
2018-10-11T16:16:57.177Z,22.80
2018-10-11T16:19:25.606Z,22.43
2018-10-11T16:21:53.982Z,22.23
2018-10-11T16:24:22.422Z,22.01
2018-10-11T16:26:50.859Z,21.81
2018-10-11T16:29:19.374Z,21.60
2018-10-11T16:31:47.769Z,21.37
2018-10-11T16:34:16.165Z,21.25
2018-10-11T16:36:45.213Z,21.10
2018-10-11T16:39:13.823Z,20.84
2018-10-11T16:41:42.197Z,20.67
2018-10-11T16:44:10.600Z,20.45
2018-10-11T16:46:39.109Z,20.35
2018-10-11T16:49:07.547Z,20.23
2018-10-11T16:51:36.005Z,20.12
2018-10-11T16:54:04.378Z,20.04
2018-10-11T16:56:32.825Z,19.99
2018-10-11T16:59:01.206Z,19.88
2018-10-11T17:01:29.634Z,19.88
2018-10-11T17:03:58.025Z,19.81
2018-10-11T17:06:26.433Z,19.64
2018-10-11T17:08:54.821Z,19.52
2018-10-11T17:11:23.191Z,19.41
2018-10-11T17:13:51.618Z,19.25
2018-10-11T17:16:20.046Z,19.14
2018-10-11T17:18:48.534Z,19.07
2018-10-11T17:21:16.944Z,19.00
2018-10-11T17:23:45.363Z,18.97
2018-10-11T17:26:13.845Z,19.01
2018-10-11T17:28:42.248Z,18.93
2018-10-11T17:31:10.722Z,18.97
2018-10-11T17:33:39.195Z,18.95
2018-10-11T17:36:07.742Z,18.99
2018-10-11T17:38:36.489Z,18.94
2018-10-11T17:41:04.902Z,18.83
2018-10-11T17:43:33.298Z,18.74
2018-10-11T17:46:01.713Z,18.60
2018-10-11T17:48:30.098Z,18.45
2018-10-11T17:50:58.514Z,18.27
2018-10-11T17:53:27.100Z,18.14
2018-10-11T17:55:55.513Z,18.04
2018-10-11T17:58:23.957Z,17.92
2018-10-11T18:00:52.345Z,17.83
2018-10-11T18:03:20.797Z,17.70
2018-10-11T18:05:49.350Z,17.67
2018-10-11T18:08:17.779Z,17.66
2018-10-11T18:10:46.163Z,17.61
2018-10-11T18:13:14.591Z,17.56
2018-10-11T18:15:44.654Z,17.52
2018-10-11T18:18:13.298Z,17.52
2018-10-11T18:20:41.771Z,17.56
2018-10-11T18:23:10.226Z,17.55
2018-10-11T18:25:38.601Z,17.54
2018-10-11T18:28:08.534Z,17.54
2018-10-11T18:30:37.013Z,17.57
2018-10-11T18:33:05.673Z,17.58
2018-10-11T18:35:34.065Z,17.65
2018-10-11T18:38:02.494Z,17.73
2018-10-11T18:40:30.882Z,17.71
2018-10-11T18:42:59.299Z,17.65
2018-10-11T18:45:27.743Z,17.58
2018-10-11T18:47:56.157Z,17.56
2018-10-11T18:50:24.895Z,17.53
2018-10-11T18:52:53.277Z,17.50
2018-10-11T18:55:22.363Z,17.46
2018-10-11T18:57:50.868Z,17.43
2018-10-11T19:00:19.326Z,17.39
2018-10-11T19:02:47.744Z,17.38
2018-10-11T19:05:16.145Z,17.34
2018-10-11T19:07:44.566Z,17.25
2018-10-11T19:10:12.974Z,17.17
2018-10-11T19:12:41.422Z,17.11
2018-10-11T19:15:09.931Z,17.04
2018-10-11T19:17:38.336Z,16.97
2018-10-11T19:20:06.801Z,16.92
2018-10-11T19:22:35.210Z,16.82
2018-10-11T19:25:03.670Z,16.66
2018-10-11T19:27:32.173Z,16.53
2018-10-11T19:30:00.575Z,16.39
2018-10-11T19:32:29.737Z,16.26
2018-10-11T19:34:58.129Z,16.06
2018-10-11T19:37:26.569Z,15.96
2018-10-11T19:39:54.993Z,15.92
2018-10-11T19:42:23.469Z,15.88
2018-10-11T19:44:52.396Z,15.90
2018-10-11T19:47:20.854Z,15.91
2018-10-11T19:49:49.305Z,15.91
2018-10-11T19:52:17.725Z,15.81
2018-10-11T19:54:46.150Z,15.75
2018-10-11T19:57:14.570Z,15.68
2018-10-11T19:59:43.001Z,15.67
2018-10-11T20:02:11.498Z,15.65
2018-10-11T20:04:39.884Z,15.61
2018-10-11T20:07:08.320Z,15.53
2018-10-11T20:09:36.907Z,15.46
2018-10-11T20:12:05.522Z,15.40
2018-10-11T20:14:34.178Z,15.34
2018-10-11T20:17:02.648Z,15.29
2018-10-11T20:19:31.086Z,15.28
2018-10-11T20:21:59.701Z,15.21
2018-10-11T20:24:28.209Z,15.18
2018-10-11T20:26:56.962Z,15.18
2018-10-11T20:29:25.422Z,15.17
2018-10-11T20:31:53.777Z,15.10
2018-10-11T20:34:22.164Z,15.05
2018-10-11T20:36:50.618Z,15.02
2018-10-11T20:39:19.095Z,14.94
2018-10-11T20:41:47.524Z,14.90
2018-10-11T20:44:15.917Z,14.93
2018-10-11T20:46:44.325Z,15.03
2018-10-11T20:49:12.831Z,15.10
2018-10-11T20:51:41.371Z,15.12
2018-10-11T20:54:09.713Z,15.19
2018-10-11T20:56:38.078Z,15.22
2018-10-11T20:59:07.023Z,15.23
2018-10-11T21:01:35.404Z,15.22
2018-10-11T21:04:03.841Z,15.33
2018-10-11T21:06:32.236Z,15.33
2018-10-11T21:09:00.754Z,15.36
2018-10-11T21:11:35.718Z,15.33
2018-10-11T21:14:04.158Z,15.30
2018-10-11T21:16:32.598Z,15.25
2018-10-11T21:19:01.041Z,15.15
2018-10-11T21:21:29.866Z,15.02
2018-10-11T21:23:58.434Z,14.89
2018-10-11T21:26:26.879Z,14.75
2018-10-11T21:28:55.263Z,14.64
2018-10-11T21:31:23.661Z,14.54
2018-10-11T21:33:52.085Z,14.45
2018-10-11T21:36:20.482Z,14.43
2018-10-11T21:38:48.941Z,14.45
2018-10-11T21:41:17.310Z,14.42
2018-10-11T21:43:45.724Z,14.39
2018-10-11T21:46:14.202Z,14.36
2018-10-11T21:48:42.612Z,14.40
2018-10-11T21:51:11.059Z,14.41
2018-10-11T21:53:39.507Z,14.44
2018-10-11T21:56:07.877Z,14.56
2018-10-11T21:58:36.265Z,14.69
2018-10-11T22:01:09.993Z,14.77
2018-10-11T22:03:38.402Z,14.88
2018-10-11T22:06:06.820Z,14.96
2018-10-11T22:08:35.391Z,14.99
2018-10-11T22:11:03.694Z,15.02
2018-10-11T22:13:32.095Z,15.12
2018-10-11T22:16:00.573Z,15.18
2018-10-11T22:18:29.156Z,15.18
2018-10-11T22:20:58.117Z,15.14
2018-10-11T22:23:26.755Z,15.12
2018-10-11T22:25:55.264Z,15.08
2018-10-11T22:28:30.193Z,15.02
2018-10-11T22:30:58.861Z,15.00
2018-10-11T22:33:27.562Z,14.95
2018-10-11T22:35:56.084Z,14.91
2018-10-11T22:38:24.488Z,14.90
2018-10-11T22:40:53.017Z,14.84
2018-10-11T22:43:21.429Z,14.79
2018-10-11T22:45:49.906Z,14.73
2018-10-11T22:48:18.330Z,14.66
2018-10-11T22:50:46.781Z,14.58
2018-10-11T22:53:15.210Z,14.47
2018-10-11T22:55:43.630Z,14.36
2018-10-11T22:58:12.046Z,14.28
2018-10-11T23:00:40.481Z,14.27
2018-10-11T23:03:09.140Z,14.26
2018-10-11T23:05:37.582Z,14.35
2018-10-11T23:08:05.982Z,14.34
2018-10-11T23:10:34.505Z,14.29
2018-10-11T23:13:02.921Z,14.30
2018-10-11T23:15:31.355Z,14.48
2018-10-11T23:17:59.805Z,14.43
2018-10-11T23:20:28.213Z,14.32
2018-10-11T23:22:56.648Z,14.32
2018-10-11T23:25:25.074Z,14.30
2018-10-11T23:27:53.551Z,14.23
2018-10-11T23:30:21.986Z,14.24
2018-10-11T23:32:50.367Z,14.34
2018-10-11T23:35:18.757Z,14.42
2018-10-11T23:37:47.144Z,14.53
2018-10-11T23:40:15.541Z,14.45
2018-10-11T23:42:43.930Z,14.45
2018-10-11T23:45:13.130Z,14.43
2018-10-11T23:47:42.316Z,14.35
2018-10-11T23:50:10.768Z,14.32
2018-10-11T23:52:39.242Z,14.31
2018-10-11T23:55:07.974Z,14.33
2018-10-11T23:57:36.544Z,14.29
